Time;durP1;ratioP1;P1;durP2;ratioP2;P2;SDS_P1;SDS_P2;PMS_P1;PMS_P2;Temp;Humidity;BMP_temperature;BMP_pressure;BME280_temperature;BME280_humidity;BME280_pressure;Samples;Min_cycle;Max_cycle;Signal;HPM_P1;HPM_P2
2022/01/14 00:01:55;;;;;;;18.42;6.03;;;6.30;99.90;;;;;;4932896;29;20051;-64
2022/01/14 00:04:21;;;;;;;17.63;6.50;;;6.20;99.90;;;;;;4959467;28;20102;-64
2022/01/14 00:06:47;;;;;;;25.60;7.80;;;6.20;99.90;;;;;;4961365;28;20042;-64
2022/01/14 00:09:13;;;;;;;16.33;5.38;;;6.30;99.90;;;;;;4957108;28;20508;-64
2022/01/14 00:11:45;;;;;;;21.05;7.45;;;6.20;99.90;;;;;;4949529;28;20409;-64
2022/01/14 00:16:40;;;;;;;24.40;6.57;;;6.30;99.90;;;;;;4949388;29;20047;-64
2022/01/14 00:19:06;;;;;;;22.65;7.88;;;6.30;99.90;;;;;;4949499;29;20066;-64
2022/01/14 00:21:34;;;;;;;24.38;7.72;;;6.30;99.90;;;;;;4950357;28;20078;-64
2022/01/14 00:24:07;;;;;;;19.83;7.03;;;6.30;99.90;;;;;;4931829;29;20433;-64
2022/01/14 00:34:37;;;;;;;25.30;7.35;;;6.30;99.90;;;;;;4949276;28;20105;-64
2022/01/14 00:37:04;;;;;;;20.65;6.78;;;6.30;99.90;;;;;;4949074;29;20047;-64
2022/01/14 00:39:29;;;;;;;21.10;7.00;;;6.30;99.90;;;;;;4949683;29;20066;-64
2022/01/14 00:41:55;;;;;;;27.23;7.80;;;6.30;99.90;;;;;;4948498;28;20035;-64
2022/01/14 00:44:21;;;;;;;20.02;6.68;;;6.30;99.90;;;;;;4932037;29;20051;-64
2022/01/14 00:46:49;;;;;;;19.08;7.10;;;6.30;99.90;;;;;;4932441;29;20043;-64
2022/01/14 00:49:16;;;;;;;30.67;9.45;;;6.30;99.90;;;;;;4949736;29;20048;-64
2022/01/14 00:51:42;;;;;;;12.10;5.57;;;6.30;99.90;;;;;;4949222;29;20117;-64
2022/01/14 00:54:09;;;;;;;30.38;8.90;;;6.30;99.90;;;;;;4949214;29;20229;-64
2022/01/14 00:59:14;;;;;;;32.17;8.73;;;6.40;99.90;;;;;;4948651;29;20364;-64
2022/01/14 01:01:48;;;;;;;31.58;8.18;;;6.30;99.90;;;;;;4948305;28;20050;-64
2022/01/14 01:04:25;;;;;;;40.25;11.38;;;6.40;99.90;;;;;;4948005;29;20051;-64
2022/01/14 01:06:53;;;;;;;20.17;7.28;;;6.40;99.90;;;;;;4950203;28;20047;-64
2022/01/14 01:09:21;;;;;;;23.80;7.85;;;6.30;99.90;;;;;;4948474;29;20529;-64
2022/01/14 01:11:54;;;;;;;19.83;6.28;;;6.40;99.90;;;;;;4951444;28;20047;-64
2022/01/14 01:14:32;;;;;;;26.35;7.20;;;6.40;99.90;;;;;;4954614;28;20040;-64
2022/01/14 01:16:58;;;;;;;24.65;7.13;;;6.40;99.90;;;;;;4948884;29;20039;-64
2022/01/14 01:19:24;;;;;;;17.67;7.80;;;6.40;99.90;;;;;;4932461;29;20510;-64
2022/01/14 01:21:50;;;;;;;24.45;8.48;;;6.40;99.90;;;;;;4948653;29;20553;-64
2022/01/14 01:24:16;;;;;;;25.35;8.35;;;6.30;99.90;;;;;;4931617;29;20092;-64
2022/01/14 01:26:43;;;;;;;28.35;8.63;;;6.40;99.90;;;;;;4948951;29;20580;-64
2022/01/14 01:31:38;;;;;;;26.83;9.15;;;6.30;99.90;;;;;;4961232;28;20089;-64
2022/01/14 01:34:14;;;;;;;17.95;6.35;;;6.30;99.90;;;;;;4965691;28;20053;-64
2022/01/14 01:36:42;;;;;;;23.88;9.10;;;6.30;99.90;;;;;;4964106;28;20042;-64
2022/01/14 01:39:10;;;;;;;25.25;9.68;;;6.30;99.90;;;;;;4948091;28;20051;-64
2022/01/14 01:41:42;;;;;;;23.73;9.50;;;6.30;99.90;;;;;;4965038;28;20045;-64
2022/01/14 01:44:08;;;;;;;21.15;7.10;;;6.30;99.90;;;;;;4965621;28;20093;-64
2022/01/14 01:46:38;;;;;;;19.20;6.53;;;6.30;99.90;;;;;;4965801;28;20505;-64
2022/01/14 01:49:05;;;;;;;23.20;7.22;;;6.30;99.90;;;;;;4942713;28;20043;-64
2022/01/14 01:51:31;;;;;;;26.15;9.15;;;6.30;99.90;;;;;;4960718;28;20489;-64
2022/01/14 01:53:57;;;;;;;17.42;6.05;;;6.30;99.90;;;;;;4928974;29;20158;-64
2022/01/14 01:56:23;;;;;;;22.98;7.88;;;6.30;99.90;;;;;;4964102;28;20050;-64
2022/01/14 01:58:48;;;;;;;27.95;9.93;;;6.30;99.90;;;;;;4964142;28;20133;-64
2022/01/14 02:01:14;;;;;;;31.75;8.90;;;6.30;99.90;;;;;;4941395;28;20043;-64
2022/01/14 02:03:40;;;;;;;33.75;10.98;;;6.40;99.90;;;;;;4958028;28;20078;-64
2022/01/14 02:06:06;;;;;;;26.00;8.18;;;6.30;99.90;;;;;;4961136;28;20494;-64
2022/01/14 02:08:33;;;;;;;18.13;7.90;;;6.30;99.90;;;;;;4946918;28;20043;-64
2022/01/14 02:10:59;;;;;;;30.88;10.65;;;6.30;99.90;;;;;;4959586;28;20051;-64
2022/01/14 02:13:26;;;;;;;29.75;9.18;;;6.30;99.90;;;;;;4949862;29;20055;-64
2022/01/14 02:18:40;;;;;;;23.05;7.38;;;6.30;99.90;;;;;;4951136;29;20125;-64
2022/01/14 02:24:07;;;;;;;25.08;7.80;;;6.30;99.90;;;;;;4951663;29;20128;-64
2022/01/14 02:26:33;;;;;;;29.45;7.30;;;6.30;99.90;;;;;;4949282;29;20062;-64
2022/01/14 02:28:59;;;;;;;29.17;8.90;;;6.30;99.90;;;;;;4949861;28;20128;-64
2022/01/14 02:31:24;;;;;;;36.70;8.50;;;6.30;99.90;;;;;;4950844;28;20035;-64
2022/01/14 02:33:51;;;;;;;17.40;7.38;;;6.30;99.90;;;;;;4950120;29;20095;-64
2022/01/14 02:36:17;;;;;;;34.88;10.43;;;6.30;99.90;;;;;;4950885;29;20040;-64
2022/01/14 02:38:44;;;;;;;32.67;9.32;;;6.30;99.90;;;;;;4948352;29;20038;-64
2022/01/14 02:41:10;;;;;;;37.60;11.05;;;6.20;99.90;;;;;;4950983;29;20520;-64
2022/01/14 02:43:36;;;;;;;33.28;9.95;;;6.20;99.90;;;;;;4962444;28;20043;-64
2022/01/14 02:46:04;;;;;;;21.88;7.25;;;6.30;99.90;;;;;;4959402;28;20070;-64
2022/01/14 02:48:30;;;;;;;45.45;13.73;;;6.30;99.90;;;;;;4950041;29;20039;-64
2022/01/14 02:51:07;;;;;;;32.67;8.43;;;6.30;99.90;;;;;;4950124;29;20047;-64
2022/01/14 02:56:04;;;;;;;34.85;9.02;;;6.30;99.90;;;;;;4954439;28;20043;-64
2022/01/14 02:58:32;;;;;;;25.98;7.43;;;6.30;99.90;;;;;;4950789;28;20058;-64
2022/01/14 03:01:05;;;;;;;43.25;12.00;;;6.30;99.90;;;;;;4954328;28;20402;-64
2022/01/14 03:03:32;;;;;;;15.50;6.13;;;6.30;99.90;;;;;;4932796;29;20051;-64
2022/01/14 03:06:01;;;;;;;30.90;11.02;;;6.30;99.90;;;;;;4949463;28;20056;-64
2022/01/14 03:08:34;;;;;;;31.27;10.57;;;6.40;99.90;;;;;;4948816;29;20051;-64
2022/01/14 03:11:21;;;;;;;26.02;10.20;;;6.30;99.90;;;;;;4951239;28;20079;-64
2022/01/14 03:13:47;;;;;;;24.85;9.40;;;6.30;99.90;;;;;;4948846;28;20252;-64
2022/01/14 03:16:14;;;;;;;22.02;7.78;;;6.30;99.90;;;;;;4950376;29;20039;-64
2022/01/14 03:18:47;;;;;;;27.42;11.82;;;6.40;99.90;;;;;;4933009;29;20047;-64
2022/01/14 03:21:16;;;;;;;18.77;8.50;;;6.30;99.90;;;;;;4950436;28;20043;-64
2022/01/14 03:23:51;;;;;;;29.73;9.13;;;6.40;99.90;;;;;;4949930;29;20049;-64
2022/01/14 03:26:20;;;;;;;35.15;12.75;;;6.40;99.90;;;;;;4949066;29;20061;-64
2022/01/14 03:28:47;;;;;;;33.83;13.33;;;6.40;99.90;;;;;;4949316;29;20053;-64
2022/01/14 03:31:14;;;;;;;31.92;11.25;;;6.30;99.90;;;;;;4949310;28;20043;-64
2022/01/14 03:33:40;;;;;;;31.00;9.45;;;6.40;99.90;;;;;;4949559;29;20137;-64
2022/01/14 03:36:06;;;;;;;33.53;10.63;;;6.30;99.90;;;;;;4949723;29;20094;-64
2022/01/14 03:38:34;;;;;;;36.25;11.90;;;6.30;99.90;;;;;;4931012;29;20046;-64
2022/01/14 03:40:59;;;;;;;27.45;9.57;;;6.40;99.90;;;;;;4950171;28;20039;-64
2022/01/14 03:43:25;;;;;;;31.98;10.13;;;6.40;99.90;;;;;;4930590;29;20078;-64
2022/01/14 03:45:51;;;;;;;11.32;6.95;;;6.40;99.90;;;;;;4948718;29;20054;-64
2022/01/14 03:48:18;;;;;;;32.15;11.77;;;6.40;99.90;;;;;;4947165;29;20446;-64
2022/01/14 03:50:44;;;;;;;33.67;9.77;;;6.40;99.90;;;;;;4949168;28;20031;-64
2022/01/14 03:53:13;;;;;;;34.22;12.25;;;6.40;99.90;;;;;;4931908;29;20152;-64
2022/01/14 03:55:40;;;;;;;24.85;7.00;;;6.40;99.90;;;;;;4948988;29;20039;-64
2022/01/14 03:58:07;;;;;;;33.55;12.85;;;6.50;99.90;;;;;;4932379;29;20067;-64
2022/01/14 04:00:33;;;;;;;30.73;9.35;;;6.50;99.90;;;;;;4948603;28;20051;-64
2022/01/14 04:02:59;;;;;;;29.08;9.30;;;6.50;99.90;;;;;;4949629;28;20604;-64
2022/01/14 04:05:25;;;;;;;36.78;10.27;;;6.50;99.90;;;;;;4947639;29;20043;-64
2022/01/14 04:07:51;;;;;;;28.75;7.53;;;6.50;99.90;;;;;;4949677;29;20051;-64
2022/01/14 04:10:18;;;;;;;20.10;8.65;;;6.50;99.90;;;;;;4948453;28;20079;-64
2022/01/14 04:17:58;;;;;;;16.58;7.35;;;6.40;99.90;;;;;;4947922;29;20131;-64
2022/01/14 04:20:24;;;;;;;20.60;7.70;;;6.40;99.90;;;;;;4949417;29;20047;-64
2022/01/14 04:22:51;;;;;;;24.50;7.25;;;6.40;99.90;;;;;;4947880;28;20061;-64
2022/01/14 04:25:17;;;;;;;28.17;9.63;;;6.40;99.90;;;;;;4949314;29;20057;-64
2022/01/14 04:27:43;;;;;;;22.52;8.95;;;6.40;99.90;;;;;;4930760;29;20126;-64
2022/01/14 04:30:09;;;;;;;30.90;10.30;;;6.30;99.90;;;;;;4931320;29;20157;-64
2022/01/14 04:32:35;;;;;;;27.88;9.23;;;6.20;99.90;;;;;;4931059;29;20043;-64
2022/01/14 04:35:01;;;;;;;33.72;8.95;;;6.30;99.90;;;;;;4947846;29;20121;-64
2022/01/14 04:37:27;;;;;;;23.13;7.82;;;6.30;99.90;;;;;;4948863;29;20425;-64
2022/01/14 04:39:52;;;;;;;27.80;9.93;;;6.20;99.90;;;;;;4947284;28;20530;-64
2022/01/14 04:42:18;;;;;;;23.15;7.82;;;6.30;99.90;;;;;;4949766;28;20043;-64
2022/01/14 04:44:44;;;;;;;23.15;8.07;;;6.30;99.90;;;;;;4914249;29;20053;-64
2022/01/14 04:47:18;;;;;;;17.75;8.60;;;6.30;99.90;;;;;;4948565;29;20051;-64
2022/01/14 04:49:44;;;;;;;19.33;8.35;;;6.30;99.90;;;;;;4931344;29;20055;-64
2022/01/14 04:52:10;;;;;;;22.40;8.93;;;6.30;99.90;;;;;;4946029;28;20429;-64
2022/01/14 04:54:36;;;;;;;33.65;10.90;;;6.20;99.90;;;;;;4952247;28;20035;-64
2022/01/14 04:57:02;;;;;;;20.98;9.10;;;6.30;99.90;;;;;;4946954;28;20055;-64
2022/01/14 04:59:28;;;;;;;18.73;8.27;;;6.30;99.90;;;;;;4955860;28;20473;-64
2022/01/14 05:01:57;;;;;;;26.58;10.35;;;6.30;99.90;;;;;;4946787;28;20043;-64
2022/01/14 05:04:23;;;;;;;30.35;12.63;;;6.30;99.90;;;;;;4932942;29;20070;-64
2022/01/14 05:06:56;;;;;;;26.65;9.60;;;6.30;99.90;;;;;;4948234;29;20047;-64
2022/01/14 05:09:28;;;;;;;40.28;13.85;;;6.30;99.90;;;;;;4946075;29;20051;-64
2022/01/14 05:11:58;;;;;;;34.72;13.85;;;6.40;99.90;;;;;;4948578;28;20074;-64
2022/01/14 05:14:24;;;;;;;;;;;6.40;99.90;;;;;;4948434;28;20508;-64
2022/01/14 05:16:50;;;;;;;34.92;13.52;;;6.40;99.90;;;;;;4948443;29;19927;-64
2022/01/14 05:19:15;;;;;;;37.90;15.13;;;6.50;99.90;;;;;;4947785;29;20398;-64
2022/01/14 05:21:41;;;;;;;37.10;13.10;;;6.50;99.90;;;;;;4930551;29;20461;-64
2022/01/14 05:24:07;;;;;;;37.78;14.38;;;6.40;99.90;;;;;;4949250;28;20039;-64
2022/01/14 05:26:33;;;;;;;41.60;14.27;;;6.40;99.90;;;;;;4947082;29;20081;-64
2022/01/14 05:28:58;;;;;;;31.38;13.70;;;6.40;99.90;;;;;;4951268;28;20047;-64
2022/01/14 05:32:03;;;;;;;27.13;11.00;;;6.40;99.90;;;;;;4949283;28;20126;-64
2022/01/14 05:34:31;;;;;;;40.25;15.27;;;6.40;99.90;;;;;;4876875;29;20485;-64
2022/01/14 05:36:56;;;;;;;35.10;15.52;;;6.30;99.90;;;;;;4953299;28;20135;-64
2022/01/14 05:39:23;;;;;;;38.88;13.75;;;6.40;99.90;;;;;;4951633;29;20169;-64
2022/01/14 05:41:50;;;;;;;47.60;15.70;;;6.30;99.90;;;;;;4951656;28;20047;-64
2022/01/14 05:44:17;;;;;;;37.60;14.32;;;6.40;99.90;;;;;;4950839;28;20425;-64
2022/01/14 05:46:43;;;;;;;38.58;14.98;;;6.30;99.90;;;;;;4934328;29;20051;-64
2022/01/14 05:49:09;;;;;;;46.60;19.27;;;6.30;99.90;;;;;;4950601;29;20043;-64
2022/01/14 05:51:35;;;;;;;46.05;18.13;;;6.30;99.90;;;;;;4952098;29;20494;-64
2022/01/14 05:54:01;;;;;;;45.90;17.10;;;6.30;99.90;;;;;;4951978;28;20138;-64
2022/01/14 05:56:27;;;;;;;44.42;17.85;;;6.30;99.90;;;;;;4951225;29;20055;-64
2022/01/14 05:58:53;;;;;;;47.65;16.27;;;6.30;99.90;;;;;;4951419;29;20471;-64
2022/01/14 06:01:18;;;;;;;40.35;13.93;;;6.30;99.90;;;;;;4933123;29;20057;-64
2022/01/14 06:03:44;;;;;;;34.38;13.50;;;6.30;99.90;;;;;;4955496;28;20035;-64
2022/01/14 06:06:10;;;;;;;34.65;13.25;;;6.30;99.90;;;;;;4932996;29;20142;-64
2022/01/14 06:08:36;;;;;;;29.38;11.75;;;6.40;99.90;;;;;;4951717;29;20039;-64
2022/01/14 06:11:01;;;;;;;39.08;13.23;;;6.40;99.90;;;;;;4961819;28;20049;-64
2022/01/14 06:13:27;;;;;;;36.45;14.15;;;6.30;99.90;;;;;;4936209;28;20047;-64
2022/01/14 06:15:53;;;;;;;34.25;12.90;;;6.40;99.90;;;;;;4955550;28;20098;-64
2022/01/14 06:18:19;;;;;;;35.88;13.27;;;6.40;99.90;;;;;;4950443;29;20086;-64
2022/01/14 06:20:46;;;;;;;48.85;14.32;;;6.40;99.90;;;;;;4951156;29;20050;-64
2022/01/14 06:23:12;;;;;;;33.63;14.50;;;6.40;99.90;;;;;;4950012;29;20043;-64
2022/01/14 06:25:38;;;;;;;19.42;7.75;;;6.40;99.90;;;;;;4956957;28;20152;-64
2022/01/14 06:28:04;;;;;;;45.03;15.88;;;6.40;99.90;;;;;;4949796;29;20039;-64
2022/01/14 06:30:30;;;;;;;30.90;11.13;;;6.40;99.90;;;;;;4951371;29;20051;-64
2022/01/14 06:32:56;;;;;;;32.15;11.70;;;6.40;99.90;;;;;;4948900;28;20398;-65
2022/01/14 06:35:22;;;;;;;36.60;11.27;;;6.40;99.90;;;;;;4947394;28;20039;-64
2022/01/14 06:37:50;;;;;;;40.10;11.63;;;6.40;99.90;;;;;;4966079;28;20134;-64
2022/01/14 06:40:16;;;;;;;25.08;10.85;;;6.40;99.90;;;;;;4948128;28;20133;-64
2022/01/14 06:42:42;;;;;;;31.45;11.25;;;6.40;99.90;;;;;;4969304;28;20047;-64
2022/01/14 06:45:09;;;;;;;33.10;10.75;;;6.40;99.90;;;;;;4965883;28;20101;-64
2022/01/14 06:47:35;;;;;;;31.30;8.48;;;6.40;99.90;;;;;;4952176;28;20124;-65
2022/01/14 06:50:01;;;;;;;29.75;10.35;;;6.40;99.90;;;;;;4966579;28;20041;-64
2022/01/14 06:52:27;;;;;;;37.90;9.95;;;6.40;99.90;;;;;;4968733;28;20486;-64
2022/01/14 06:54:53;;;;;;;35.97;11.35;;;6.40;99.90;;;;;;4967783;28;20031;-64
2022/01/14 06:57:21;;;;;;;39.72;15.10;;;6.40;99.90;;;;;;4967076;28;20051;-65
2022/01/14 06:59:47;;;;;;;37.10;13.68;;;6.40;99.90;;;;;;4951264;28;20502;-64
2022/01/14 07:02:13;;;;;;;36.60;11.93;;;6.40;99.90;;;;;;4960546;28;20073;-64
2022/01/14 07:04:39;;;;;;;38.17;12.07;;;6.40;99.90;;;;;;4968844;28;20447;-64
2022/01/14 07:07:05;;;;;;;37.72;10.93;;;6.40;99.90;;;;;;4959169;28;20092;-64
2022/01/14 07:09:31;;;;;;;34.17;10.75;;;6.40;99.90;;;;;;4943946;29;20031;-64
2022/01/14 07:11:59;;;;;;;32.60;8.80;;;6.40;99.90;;;;;;4949528;28;20059;-64
2022/01/14 07:14:25;;;;;;;29.88;9.65;;;6.40;99.90;;;;;;4962891;28;20046;-64
2022/01/14 07:16:51;;;;;;;40.15;10.25;;;6.40;99.90;;;;;;4966721;28;20082;-64
2022/01/14 07:19:20;;;;;;;34.20;8.10;;;6.40;99.90;;;;;;4964577;28;20039;-64
2022/01/14 07:21:47;;;;;;;40.88;11.50;;;6.40;99.90;;;;;;4948630;28;20057;-64
2022/01/14 07:24:13;;;;;;;31.65;9.85;;;6.40;99.90;;;;;;4957880;28;20034;-64
2022/01/14 07:26:40;;;;;;;29.00;8.77;;;6.40;99.90;;;;;;4953247;28;20057;-64
2022/01/14 07:29:06;;;;;;;37.88;12.55;;;6.40;99.90;;;;;;4953844;28;20454;-64
2022/01/14 07:31:32;;;;;;;35.17;10.25;;;6.40;99.90;;;;;;4935976;29;20042;-64
2022/01/14 07:33:58;;;;;;;41.30;10.20;;;6.40;99.90;;;;;;4935642;29;20044;-64
2022/01/14 07:36:23;;;;;;;30.98;8.70;;;6.40;99.90;;;;;;4955424;28;20566;-64
2022/01/14 07:38:49;;;;;;;28.98;8.93;;;6.40;99.90;;;;;;4935773;29;20043;-64
2022/01/14 07:41:16;;;;;;;42.35;10.65;;;6.40;99.90;;;;;;4955449;28;20077;-64
2022/01/14 07:43:48;;;;;;;30.15;7.10;;;6.40;99.90;;;;;;4954877;28;20070;-64
2022/01/14 07:46:15;;;;;;;34.95;7.63;;;6.40;99.90;;;;;;4951604;28;20054;-64
2022/01/14 07:48:41;;;;;;;35.60;9.23;;;6.40;99.90;;;;;;4953027;28;20070;-64
2022/01/14 07:51:08;;;;;;;33.95;9.05;;;6.40;99.90;;;;;;4952997;28;20047;-64
2022/01/14 07:53:34;;;;;;;32.55;8.57;;;6.30;99.90;;;;;;4953906;28;20050;-64
2022/01/14 07:56:00;;;;;;;47.10;8.65;;;6.40;99.90;;;;;;4936549;29;20055;-64
2022/01/14 07:58:26;;;;;;;25.33;7.50;;;6.40;99.90;;;;;;4933648;28;20548;-64
2022/01/14 08:00:52;;;;;;;24.38;7.65;;;6.40;99.90;;;;;;4952891;28;20042;-64
2022/01/14 08:03:18;;;;;;;27.38;6.80;;;6.40;99.90;;;;;;4960001;28;20058;-64
2022/01/14 08:05:45;;;;;;;30.13;7.30;;;6.40;99.90;;;;;;4960963;28;20050;-64
2022/01/14 08:08:11;;;;;;;28.88;6.97;;;6.40;99.90;;;;;;4949315;28;20122;-64
2022/01/14 08:10:37;;;;;;;34.88;6.05;;;6.40;99.90;;;;;;4934644;29;20182;-64
2022/01/14 08:13:03;;;;;;;31.83;7.57;;;6.50;99.90;;;;;;4956330;28;20055;-64
2022/01/14 08:15:28;;;;;;;25.20;5.78;;;6.40;99.90;;;;;;4945528;28;20133;-64
2022/01/14 08:17:55;;;;;;;24.95;6.25;;;6.50;99.90;;;;;;4956351;28;20095;-64
2022/01/14 08:20:21;;;;;;;38.70;7.38;;;6.50;99.90;;;;;;4937831;28;20486;-64
2022/01/14 08:22:47;;;;;;;19.48;3.80;;;6.50;99.90;;;;;;4947644;28;20053;-64
2022/01/14 08:25:13;;;;;;;24.67;5.53;;;6.50;99.90;;;;;;4954189;28;20047;-64
2022/01/14 08:27:38;;;;;;;30.27;5.47;;;6.60;99.90;;;;;;4959462;28;20133;-64
2022/01/14 08:30:06;;;;;;;25.45;5.57;;;6.60;99.90;;;;;;4954964;28;20047;-64
2022/01/14 08:32:32;;;;;;;34.45;6.65;;;6.60;99.90;;;;;;4960705;28;20063;-64
2022/01/14 08:34:58;;;;;;;29.17;4.03;;;6.60;99.90;;;;;;4964600;28;20121;-64
2022/01/14 08:37:24;;;;;;;33.13;5.03;;;6.60;99.90;;;;;;4959400;28;20190;-64
2022/01/14 08:39:50;;;;;;;23.95;6.15;;;6.70;99.90;;;;;;4963175;28;20462;-64
2022/01/14 08:42:16;;;;;;;28.23;5.90;;;6.70;99.90;;;;;;4966192;28;20278;-64
2022/01/14 08:44:42;;;;;;;26.42;6.07;;;6.70;99.90;;;;;;4954126;28;20186;-64
2022/01/14 08:47:09;;;;;;;18.67;5.15;;;6.70;99.90;;;;;;4949112;28;20074;-64
2022/01/14 08:49:37;;;;;;;29.85;6.15;;;6.80;99.90;;;;;;4960655;28;20030;-64
2022/01/14 08:52:03;;;;;;;22.38;6.25;;;6.80;99.90;;;;;;4953598;28;20043;-64
2022/01/14 08:54:29;;;;;;;25.08;6.05;;;6.80;99.90;;;;;;4962184;28;20058;-64
2022/01/14 08:56:56;;;;;;;34.83;6.30;;;6.80;99.90;;;;;;4963814;28;20043;-64
2022/01/14 08:59:22;;;;;;;16.13;3.65;;;6.80;99.90;;;;;;4958328;28;20506;-64
2022/01/14 09:01:48;;;;;;;24.88;5.53;;;6.80;99.90;;;;;;4957955;28;20047;-64
2022/01/14 09:04:15;;;;;;;24.80;6.35;;;6.80;99.90;;;;;;4963592;28;20394;-64
2022/01/14 09:06:40;;;;;;;27.85;5.50;;;6.80;99.90;;;;;;4963809;28;20066;-64
2022/01/14 09:09:06;;;;;;;27.27;5.40;;;6.90;99.90;;;;;;4961335;28;20070;-64
2022/01/14 09:11:33;;;;;;;28.25;5.45;;;6.90;99.90;;;;;;4954464;28;20051;-64
2022/01/14 09:13:59;;;;;;;9.05;2.33;;;6.90;99.90;;;;;;4955081;28;20066;-64
2022/01/14 09:16:25;;;;;;;32.30;5.78;;;6.90;99.90;;;;;;4929673;29;20417;-64
2022/01/14 09:18:51;;;;;;;17.23;3.85;;;7.00;99.90;;;;;;4931279;29;20126;-64
2022/01/14 09:21:18;;;;;;;31.90;6.28;;;7.00;99.90;;;;;;4931056;28;20073;-64
2022/01/14 09:23:51;;;;;;;23.85;3.75;;;7.00;99.90;;;;;;4948106;29;20078;-64
2022/01/14 09:26:19;;;;;;;27.42;6.13;;;7.00;99.90;;;;;;4952366;28;20073;-64
2022/01/14 09:28:45;;;;;;;25.38;5.07;;;7.00;99.90;;;;;;4965097;28;20054;-64
2022/01/14 09:31:11;;;;;;;21.85;4.95;;;7.10;99.90;;;;;;4961173;28;20068;-64
2022/01/14 09:33:38;;;;;;;21.63;4.68;;;7.10;99.90;;;;;;4957330;28;20930;-64
2022/01/14 09:36:04;;;;;;;24.17;4.65;;;7.10;99.90;;;;;;4954109;28;20043;-64
2022/01/14 09:38:31;;;;;;;28.65;5.38;;;7.10;99.90;;;;;;4951379;28;20039;-64
2022/01/14 09:40:58;;;;;;;33.58;5.63;;;7.10;99.90;;;;;;4951678;28;20051;-64
2022/01/14 09:43:24;;;;;;;32.33;5.28;;;7.10;99.90;;;;;;4956701;28;20126;-64
2022/01/14 09:45:54;;;;;;;24.23;6.13;;;7.10;99.90;;;;;;4930260;28;20051;-64
2022/01/14 09:48:21;;;;;;;22.30;4.87;;;7.20;99.90;;;;;;4961729;28;20035;-64
2022/01/14 09:50:47;;;;;;;33.30;7.40;;;7.20;99.90;;;;;;4962043;28;20274;-64
2022/01/14 09:53:14;;;;;;;24.33;7.60;;;7.10;99.90;;;;;;4963969;28;20249;-64
2022/01/14 09:55:42;;;;;;;25.20;6.40;;;7.20;99.90;;;;;;4962798;28;20039;-64
2022/01/14 09:58:08;;;;;;;22.35;5.72;;;7.20;99.90;;;;;;4945328;28;20509;-64
2022/01/14 10:00:34;;;;;;;26.02;6.20;;;7.20;99.90;;;;;;4960249;28;20035;-64
2022/01/14 10:03:00;;;;;;;31.70;9.20;;;7.20;99.90;;;;;;4961501;28;20130;-65
2022/01/14 10:05:32;;;;;;;25.52;5.35;;;7.20;99.90;;;;;;4946222;28;20142;-64
2022/01/14 10:08:23;;;;;;;36.00;10.20;;;7.20;99.90;;;;;;4964956;28;20049;-64
2022/01/14 10:10:54;;;;;;;31.50;7.18;;;7.20;99.90;;;;;;4962635;28;20541;-64
2022/01/14 10:13:23;;;;;;;15.93;3.38;;;7.30;99.90;;;;;;4960005;28;20497;-64
2022/01/14 10:15:58;;;;;;;20.65;5.22;;;7.30;99.90;;;;;;4964250;28;20522;-64
2022/01/14 10:18:24;;;;;;;43.28;10.75;;;7.30;99.90;;;;;;4934384;28;20143;-64
2022/01/14 10:20:50;;;;;;;29.00;7.25;;;7.30;99.90;;;;;;4957192;28;20098;-64
2022/01/14 10:23:17;;;;;;;41.33;9.90;;;7.30;99.90;;;;;;4964394;28;20093;-64
2022/01/14 10:25:56;;;;;;;38.80;9.10;;;7.40;99.90;;;;;;4963131;28;20089;-64
2022/01/14 10:28:25;;;;;;;27.63;6.20;;;7.30;99.90;;;;;;4841035;28;20039;-64
2022/01/14 10:30:51;;;;;;;26.30;7.18;;;7.40;99.90;;;;;;4972734;28;20058;-64
2022/01/14 10:33:27;;;;;;;34.33;7.70;;;7.40;99.90;;;;;;4963125;28;20038;-64
2022/01/14 10:35:53;;;;;;;31.70;6.40;;;7.40;99.90;;;;;;4983782;28;20496;-64
2022/01/14 10:38:24;;;;;;;33.33;6.95;;;7.40;99.90;;;;;;4978844;28;20085;-64
2022/01/14 10:40:57;;;;;;;40.47;8.25;;;7.40;99.90;;;;;;4983047;28;20046;-64
2022/01/14 10:43:31;;;;;;;40.97;6.30;;;7.40;99.90;;;;;;4982652;28;20035;-64
2022/01/14 10:45:57;;;;;;;22.77;3.40;;;7.40;99.90;;;;;;4977945;28;20485;-64
2022/01/14 10:48:32;;;;;;;28.95;4.13;;;7.50;99.90;;;;;;4970493;28;20069;-64
2022/01/14 10:51:06;;;;;;;27.27;5.03;;;7.50;99.90;;;;;;4951636;28;20117;-64
2022/01/14 10:53:37;;;;;;;33.90;4.93;;;7.50;99.90;;;;;;4969683;28;20113;-64
2022/01/14 10:56:11;;;;;;;34.47;6.72;;;7.50;99.90;;;;;;4968587;28;20110;-64
2022/01/14 10:58:48;;;;;;;33.38;9.07;;;7.60;99.90;;;;;;4967581;28;20063;-64
2022/01/14 11:01:21;;;;;;;35.58;8.23;;;7.60;99.90;;;;;;4967987;28;20405;-64
2022/01/14 11:03:53;;;;;;;27.83;5.20;;;7.60;99.90;;;;;;4979436;28;20034;-64
2022/01/14 11:06:29;;;;;;;26.67;4.90;;;7.60;99.90;;;;;;4979780;28;20508;-64
2022/01/14 11:08:58;;;;;;;31.52;5.50;;;7.60;99.90;;;;;;4962659;28;20054;-64
2022/01/14 11:11:25;;;;;;;44.00;5.25;;;7.70;99.90;;;;;;4985005;28;20041;-64
2022/01/14 11:13:51;;;;;;;30.58;4.80;;;7.70;99.90;;;;;;4986186;28;20046;-64
2022/01/14 11:16:17;;;;;;;35.83;5.47;;;7.70;99.90;;;;;;4960790;28;20039;-64
2022/01/14 11:18:45;;;;;;;32.42;4.03;;;7.80;99.90;;;;;;4981869;28;20492;-64
2022/01/14 11:23:56;;;;;;;42.85;5.82;;;7.80;99.90;;;;;;4969290;28;20405;-63
2022/01/14 11:26:27;;;;;;;26.80;5.28;;;7.80;99.90;;;;;;4967512;28;20119;-64
2022/01/14 11:28:53;;;;;;;33.05;5.22;;;7.80;99.90;;;;;;4950302;28;20501;-64
2022/01/14 11:31:31;;;;;;;30.30;5.40;;;7.80;99.90;;;;;;4968704;28;20081;-64
2022/01/14 11:33:59;;;;;;;40.30;6.35;;;7.80;99.90;;;;;;4969254;28;20054;-65
2022/01/14 11:36:25;;;;;;;38.55;6.03;;;7.70;99.90;;;;;;4975240;28;20054;-64
2022/01/14 11:38:51;;;;;;;39.95;6.38;;;7.80;99.90;;;;;;4966453;28;20054;-64
2022/01/14 11:41:56;;;;;;;50.30;9.48;;;7.80;99.90;;;;;;4959679;28;20121;-64
2022/01/14 11:45:00;;;;;;;38.60;7.80;;;7.80;99.90;;;;;;4960441;28;20523;-64
2022/01/14 11:47:37;;;;;;;38.15;6.70;;;7.80;99.90;;;;;;4887947;29;20091;-64
2022/01/14 11:50:06;;;;;;;39.00;7.95;;;7.80;99.90;;;;;;4961168;28;20416;-64
2022/01/14 11:52:36;;;;;;;39.60;6.43;;;7.80;99.90;;;;;;4982339;28;20042;-64
2022/01/14 11:55:04;;;;;;;36.40;9.05;;;7.80;99.90;;;;;;4970145;28;20043;-64
2022/01/14 11:57:52;;;;;;;53.55;8.13;;;7.80;99.90;;;;;;4960802;28;20114;-64
2022/01/14 12:00:27;;;;;;;42.83;10.18;;;7.80;99.90;;;;;;4946978;28;20051;-64
2022/01/14 12:03:13;;;;;;;34.50;7.30;;;7.80;99.90;;;;;;4947940;28;20629;-64
2022/01/14 12:05:54;;;;;;;39.22;7.82;;;7.80;99.90;;;;;;4949468;28;20051;-64
2022/01/14 12:08:31;;;;;;;30.27;5.65;;;7.80;99.90;;;;;;4946152;28;20102;-64
2022/01/14 12:11:17;;;;;;;48.83;8.27;;;7.80;99.90;;;;;;4946589;28;20039;-64
2022/01/14 12:13:51;;;;;;;49.33;9.10;;;7.80;99.90;;;;;;4938739;28;20043;-64
2022/01/14 12:16:20;;;;;;;68.45;12.90;;;7.80;99.90;;;;;;4947677;28;20082;-64
2022/01/14 12:18:57;;;;;;;59.47;12.77;;;7.80;99.90;;;;;;4947851;28;20063;-64
2022/01/14 12:21:44;;;;;;;67.13;14.95;;;7.80;99.90;;;;;;4945735;28;20174;-64
2022/01/14 12:24:19;;;;;;;58.83;17.13;;;7.80;99.90;;;;;;4948509;28;20043;-64
2022/01/14 12:27:12;;;;;;;80.97;19.50;;;7.80;99.90;;;;;;4939690;28;20046;-64
2022/01/14 12:29:59;;;;;;;69.95;17.02;;;7.80;99.90;;;;;;4946147;28;20043;-64
2022/01/14 12:32:34;;;;;;;55.63;13.90;;;7.80;99.90;;;;;;4947511;28;20138;-64
2022/01/14 12:35:15;;;;;;;53.75;13.80;;;7.80;99.90;;;;;;4929120;29;20059;-64
2022/01/14 12:37:46;;;;;;;73.60;14.80;;;7.80;99.90;;;;;;4928995;29;20043;-64
2022/01/14 12:40:16;;;;;;;52.80;12.05;;;7.80;99.90;;;;;;4947930;28;20540;-64
2022/01/14 12:43:05;;;;;;;53.88;8.70;;;7.80;99.90;;;;;;4945853;28;20423;-64
2022/01/14 12:45:52;;;;;;;52.72;7.00;;;7.80;99.90;;;;;;4947375;28;20039;-64
2022/01/14 12:48:40;;;;;;;48.85;7.57;;;7.80;99.90;;;;;;4947005;28;20379;-64
2022/01/14 12:51:16;;;;;;;54.50;9.38;;;7.90;99.90;;;;;;4947124;28;20052;-64
2022/01/14 12:53:48;;;;;;;54.15;8.02;;;7.90;99.90;;;;;;4929839;29;20059;-64
2022/01/14 12:56:17;;;;;;;46.63;6.85;;;7.90;99.90;;;;;;4946834;28;20050;-64
2022/01/14 12:59:02;;;;;;;39.83;6.80;;;8.00;99.90;;;;;;4909346;28;1376852;-64
2022/01/14 13:01:32;;;;;;;43.92;6.65;;;8.00;99.90;;;;;;4958441;28;20074;-64
2022/01/14 13:04:08;;;;;;;44.95;6.65;;;8.00;99.90;;;;;;4946806;28;20097;-64
2022/01/14 13:06:44;;;;;;;33.30;5.88;;;8.00;99.90;;;;;;4934955;29;20536;-64
2022/01/14 13:09:12;;;;;;;46.22;5.65;;;8.00;99.90;;;;;;4929056;28;20046;-64
2022/01/14 13:11:58;;;;;;;27.40;4.18;;;8.00;99.90;;;;;;4958153;28;20039;-64
2022/01/14 13:14:40;;;;;;;36.80;4.20;;;8.00;99.90;;;;;;4960914;28;20047;-64
2022/01/14 13:17:13;;;;;;;48.20;5.90;;;8.00;99.90;;;;;;4965294;28;20053;-64
2022/01/14 13:19:39;;;;;;;38.35;5.07;;;8.00;99.90;;;;;;4954578;28;20042;-64
2022/01/14 13:22:09;;;;;;;47.47;7.40;;;8.00;99.90;;;;;;4953241;28;20065;-64
2022/01/14 13:24:37;;;;;;;51.53;7.13;;;7.90;99.90;;;;;;4959330;28;20043;-64